sensor_id;sensor_type;location;lat;lon;timestamp;temperature;humidity
12276;DHT22;6200;48.144;11.424;2023-09-19T00:00:57;18.90;99.90
12276;DHT22;6200;48.144;11.424;2023-09-19T00:03:23;19.30;99.90
12276;DHT22;6200;48.144;11.424;2023-09-19T00:05:50;18.90;99.90
12276;DHT22;6200;48.144;11.424;2023-09-19T00:08:15;19.80;99.90
12276;DHT22;6200;48.144;11.424;2023-09-19T00:10:41;16.70;99.90
12276;DHT22;6200;48.144;11.424;2023-09-19T00:13:08;16.70;99.90
12276;DHT22;6200;48.144;11.424;2023-09-19T00:15:40;18.70;99.90
12276;DHT22;6200;48.144;11.424;2023-09-19T00:18:08;16.70;99.90
12276;DHT22;6200;48.144;11.424;2023-09-19T00:20:38;16.70;99.90
12276;DHT22;6200;48.144;11.424;2023-09-19T00:23:05;16.80;99.90
12276;DHT22;6200;48.144;11.424;2023-09-19T00:25:35;16.90;99.90
12276;DHT22;6200;48.144;11.424;2023-09-19T00:28:01;19.20;99.90
12276;DHT22;6200;48.144;11.424;2023-09-19T00:30:27;18.30;99.90
12276;DHT22;6200;48.144;11.424;2023-09-19T00:32:52;16.70;99.90
12276;DHT22;6200;48.144;11.424;2023-09-19T00:35:18;16.70;99.90
12276;DHT22;6200;48.144;11.424;2023-09-19T00:37:44;19.70;99.90
12276;DHT22;6200;48.144;11.424;2023-09-19T00:40:10;17.90;99.90
12276;DHT22;6200;48.144;11.424;2023-09-19T00:42:42;16.70;99.90
12276;DHT22;6200;48.144;11.424;2023-09-19T00:45:09;18.20;99.90
12276;DHT22;6200;48.144;11.424;2023-09-19T00:47:47;16.70;99.90
12276;DHT22;6200;48.144;11.424;2023-09-19T00:50:16;16.80;99.90
12276;DHT22;6200;48.144;11.424;2023-09-19T00:52:43;16.80;99.90
12276;DHT22;6200;48.144;11.424;2023-09-19T00:55:10;17.00;99.90
12276;DHT22;6200;48.144;11.424;2023-09-19T00:57:39;18.30;99.90
12276;DHT22;6200;48.144;11.424;2023-09-19T01:00:06;16.70;99.90
12276;DHT22;6200;48.144;11.424;2023-09-19T01:02:34;16.70;99.90
12276;DHT22;6200;48.144;11.424;2023-09-19T01:05:00;18.60;99.90
12276;DHT22;6200;48.144;11.424;2023-09-19T01:07:27;18.30;99.90
12276;DHT22;6200;48.144;11.424;2023-09-19T01:09:58;16.70;99.90
12276;DHT22;6200;48.144;11.424;2023-09-19T01:23:37;17.90;99.90
12276;DHT22;6200;48.144;11.424;2023-09-19T01:28:53;16.80;99.90
12276;DHT22;6200;48.144;11.424;2023-09-19T01:31:23;16.80;99.90
12276;DHT22;6200;48.144;11.424;2023-09-19T01:34:00;16.80;99.90
12276;DHT22;6200;48.144;11.424;2023-09-19T01:36:33;16.80;99.90
12276;DHT22;6200;48.144;11.424;2023-09-19T01:39:05;16.80;99.90
12276;DHT22;6200;48.144;11.424;2023-09-19T01:42:05;16.80;99.90
12276;DHT22;6200;48.144;11.424;2023-09-19T01:47:55;16.70;99.90
12276;DHT22;6200;48.144;11.424;2023-09-19T01:52:38;16.70;99.90
12276;DHT22;6200;48.144;11.424;2023-09-19T01:55:09;16.70;99.90
12276;DHT22;6200;48.144;11.424;2023-09-19T01:57:42;16.70;99.90
12276;DHT22;6200;48.144;11.424;2023-09-19T02:00:12;16.70;99.90
12276;DHT22;6200;48.144;11.424;2023-09-19T02:02:40;16.70;99.90
12276;DHT22;6200;48.144;11.424;2023-09-19T02:05:07;16.80;99.90
12276;DHT22;6200;48.144;11.424;2023-09-19T02:07:33;16.70;99.90
12276;DHT22;6200;48.144;11.424;2023-09-19T02:09:59;16.70;99.90
12276;DHT22;6200;48.144;11.424;2023-09-19T02:12:31;16.70;99.90
12276;DHT22;6200;48.144;11.424;2023-09-19T02:14:58;16.60;99.90
12276;DHT22;6200;48.144;11.424;2023-09-19T02:17:24;16.60;99.90
12276;DHT22;6200;48.144;11.424;2023-09-19T02:19:52;16.60;99.90
12276;DHT22;6200;48.144;11.424;2023-09-19T02:22:18;16.60;99.90
12276;DHT22;6200;48.144;11.424;2023-09-19T02:24:43;16.60;99.90
12276;DHT22;6200;48.144;11.424;2023-09-19T02:27:09;16.60;99.90
12276;DHT22;6200;48.144;11.424;2023-09-19T02:29:38;16.60;99.90
12276;DHT22;6200;48.144;11.424;2023-09-19T02:32:03;16.60;99.90
12276;DHT22;6200;48.144;11.424;2023-09-19T02:34:29;16.60;99.90
12276;DHT22;6200;48.144;11.424;2023-09-19T02:36:54;16.60;99.90
12276;DHT22;6200;48.144;11.424;2023-09-19T02:39:21;16.60;99.90
12276;DHT22;6200;48.144;11.424;2023-09-19T02:41:47;16.60;99.90
12276;DHT22;6200;48.144;11.424;2023-09-19T02:44:12;16.60;99.90
12276;DHT22;6200;48.144;11.424;2023-09-19T02:46:38;16.70;99.90
12276;DHT22;6200;48.144;11.424;2023-09-19T02:49:03;16.70;99.90
12276;DHT22;6200;48.144;11.424;2023-09-19T02:51:31;16.70;99.90
12276;DHT22;6200;48.144;11.424;2023-09-19T02:53:59;16.70;99.90
12276;DHT22;6200;48.144;11.424;2023-09-19T02:56:24;16.70;99.90
12276;DHT22;6200;48.144;11.424;2023-09-19T02:58:50;16.60;99.90
12276;DHT22;6200;48.144;11.424;2023-09-19T03:01:16;16.70;99.90
12276;DHT22;6200;48.144;11.424;2023-09-19T03:03:43;16.70;99.90
12276;DHT22;6200;48.144;11.424;2023-09-19T03:06:10;16.70;99.90
12276;DHT22;6200;48.144;11.424;2023-09-19T03:08:36;16.70;99.90
12276;DHT22;6200;48.144;11.424;2023-09-19T03:11:10;16.70;99.90
12276;DHT22;6200;48.144;11.424;2023-09-19T03:13:38;16.70;99.90
12276;DHT22;6200;48.144;11.424;2023-09-19T03:16:04;16.60;99.90
12276;DHT22;6200;48.144;11.424;2023-09-19T03:18:34;16.60;99.90
12276;DHT22;6200;48.144;11.424;2023-09-19T03:21:00;16.60;99.90
12276;DHT22;6200;48.144;11.424;2023-09-19T03:23:26;16.60;99.90
12276;DHT22;6200;48.144;11.424;2023-09-19T03:25:53;16.60;99.90
12276;DHT22;6200;48.144;11.424;2023-09-19T03:28:19;16.60;99.90
12276;DHT22;6200;48.144;11.424;2023-09-19T03:30:46;16.60;99.90
12276;DHT22;6200;48.144;11.424;2023-09-19T03:33:12;16.70;99.90
12276;DHT22;6200;48.144;11.424;2023-09-19T03:35:39;16.60;99.90
12276;DHT22;6200;48.144;11.424;2023-09-19T03:38:05;16.70;99.90
12276;DHT22;6200;48.144;11.424;2023-09-19T03:40:30;16.70;99.90
12276;DHT22;6200;48.144;11.424;2023-09-19T03:42:56;16.70;99.90
12276;DHT22;6200;48.144;11.424;2023-09-19T03:45:22;16.70;99.90
12276;DHT22;6200;48.144;11.424;2023-09-19T03:47:47;16.70;99.90
12276;DHT22;6200;48.144;11.424;2023-09-19T03:50:13;16.70;99.90
12276;DHT22;6200;48.144;11.424;2023-09-19T03:52:43;16.70;99.90
12276;DHT22;6200;48.144;11.424;2023-09-19T03:55:08;16.70;99.90
12276;DHT22;6200;48.144;11.424;2023-09-19T03:57:35;16.70;99.90
12276;DHT22;6200;48.144;11.424;2023-09-19T04:00:01;16.70;99.90
12276;DHT22;6200;48.144;11.424;2023-09-19T04:02:27;16.70;99.90
12276;DHT22;6200;48.144;11.424;2023-09-19T04:04:58;16.70;99.90
12276;DHT22;6200;48.144;11.424;2023-09-19T04:07:23;16.70;99.90
12276;DHT22;6200;48.144;11.424;2023-09-19T04:09:51;16.70;99.90
12276;DHT22;6200;48.144;11.424;2023-09-19T04:12:18;16.70;99.90
12276;DHT22;6200;48.144;11.424;2023-09-19T04:14:44;16.70;99.90
12276;DHT22;6200;48.144;11.424;2023-09-19T04:17:10;16.80;99.90
12276;DHT22;6200;48.144;11.424;2023-09-19T04:19:36;16.80;99.90
12276;DHT22;6200;48.144;11.424;2023-09-19T04:22:02;16.80;99.90
12276;DHT22;6200;48.144;11.424;2023-09-19T04:24:28;16.80;99.90
12276;DHT22;6200;48.144;11.424;2023-09-19T04:26:54;16.80;99.90
12276;DHT22;6200;48.144;11.424;2023-09-19T04:29:19;16.80;99.90
12276;DHT22;6200;48.144;11.424;2023-09-19T04:31:45;16.80;99.90
12276;DHT22;6200;48.144;11.424;2023-09-19T04:34:11;16.80;99.90
12276;DHT22;6200;48.144;11.424;2023-09-19T04:36:42;16.80;99.90
12276;DHT22;6200;48.144;11.424;2023-09-19T04:39:08;16.80;99.90
12276;DHT22;6200;48.144;11.424;2023-09-19T04:41:36;16.70;99.90
12276;DHT22;6200;48.144;11.424;2023-09-19T04:44:04;16.70;99.90
12276;DHT22;6200;48.144;11.424;2023-09-19T04:46:30;16.70;99.90
12276;DHT22;6200;48.144;11.424;2023-09-19T04:48:56;16.70;99.90
12276;DHT22;6200;48.144;11.424;2023-09-19T04:51:21;16.70;99.90
12276;DHT22;6200;48.144;11.424;2023-09-19T04:53:47;16.70;99.90
12276;DHT22;6200;48.144;11.424;2023-09-19T04:56:13;16.70;99.90
12276;DHT22;6200;48.144;11.424;2023-09-19T04:58:38;16.70;99.90
12276;DHT22;6200;48.144;11.424;2023-09-19T05:01:04;16.70;99.90
12276;DHT22;6200;48.144;11.424;2023-09-19T05:03:30;16.70;99.90
12276;DHT22;6200;48.144;11.424;2023-09-19T05:05:56;16.70;99.90
12276;DHT22;6200;48.144;11.424;2023-09-19T05:08:21;16.70;99.90
12276;DHT22;6200;48.144;11.424;2023-09-19T05:10:47;16.70;99.90
12276;DHT22;6200;48.144;11.424;2023-09-19T05:13:14;16.70;99.90
12276;DHT22;6200;48.144;11.424;2023-09-19T05:15:40;16.70;99.90
12276;DHT22;6200;48.144;11.424;2023-09-19T05:18:06;16.70;99.90
12276;DHT22;6200;48.144;11.424;2023-09-19T05:20:31;16.70;99.90
12276;DHT22;6200;48.144;11.424;2023-09-19T05:23:02;16.70;99.90
12276;DHT22;6200;48.144;11.424;2023-09-19T05:25:30;16.70;99.90
12276;DHT22;6200;48.144;11.424;2023-09-19T05:27:57;16.70;99.90
12276;DHT22;6200;48.144;11.424;2023-09-19T05:30:23;16.70;99.90
12276;DHT22;6200;48.144;11.424;2023-09-19T05:32:49;16.70;99.90
12276;DHT22;6200;48.144;11.424;2023-09-19T05:35:16;16.70;99.90
12276;DHT22;6200;48.144;11.424;2023-09-19T05:37:41;16.70;99.90
12276;DHT22;6200;48.144;11.424;2023-09-19T05:40:07;16.70;99.90
12276;DHT22;6200;48.144;11.424;2023-09-19T05:42:38;16.70;99.90
12276;DHT22;6200;48.144;11.424;2023-09-19T05:45:05;16.80;99.90
12276;DHT22;6200;48.144;11.424;2023-09-19T05:47:32;16.80;99.90
12276;DHT22;6200;48.144;11.424;2023-09-19T05:49:57;16.80;99.90
12276;DHT22;6200;48.144;11.424;2023-09-19T05:52:23;16.80;99.90
12276;DHT22;6200;48.144;11.424;2023-09-19T05:54:48;16.80;99.90
12276;DHT22;6200;48.144;11.424;2023-09-19T05:57:14;16.80;99.90
12276;DHT22;6200;48.144;11.424;2023-09-19T05:59:40;16.90;99.90
12276;DHT22;6200;48.144;11.424;2023-09-19T06:02:08;17.00;99.90
12276;DHT22;6200;48.144;11.424;2023-09-19T06:04:35;17.10;99.90
12276;DHT22;6200;48.144;11.424;2023-09-19T06:07:00;17.10;99.90
12276;DHT22;6200;48.144;11.424;2023-09-19T06:09:31;17.20;99.90
12276;DHT22;6200;48.144;11.424;2023-09-19T06:11:57;17.30;99.90
12276;DHT22;6200;48.144;11.424;2023-09-19T06:14:23;17.30;99.90
12276;DHT22;6200;48.144;11.424;2023-09-19T06:16:50;17.40;99.90
12276;DHT22;6200;48.144;11.424;2023-09-19T06:19:15;17.40;99.90
12276;DHT22;6200;48.144;11.424;2023-09-19T06:21:41;17.40;99.90
12276;DHT22;6200;48.144;11.424;2023-09-19T06:24:06;17.40;99.90
12276;DHT22;6200;48.144;11.424;2023-09-19T06:26:32;17.40;99.90
12276;DHT22;6200;48.144;11.424;2023-09-19T06:28:58;17.50;99.90
12276;DHT22;6200;48.144;11.424;2023-09-19T06:31:25;17.50;99.90
12276;DHT22;6200;48.144;11.424;2023-09-19T06:33:52;17.60;99.90
12276;DHT22;6200;48.144;11.424;2023-09-19T06:36:17;17.60;99.90
12276;DHT22;6200;48.144;11.424;2023-09-19T06:38:44;17.80;99.90
12276;DHT22;6200;48.144;11.424;2023-09-19T06:41:10;17.90;99.90
12276;DHT22;6200;48.144;11.424;2023-09-19T06:43:37;18.00;99.90
12276;DHT22;6200;48.144;11.424;2023-09-19T06:46:04;18.10;99.90
12276;DHT22;6200;48.144;11.424;2023-09-19T06:48:32;18.20;99.90
12276;DHT22;6200;48.144;11.424;2023-09-19T06:50:58;18.30;99.90
12276;DHT22;6200;48.144;11.424;2023-09-19T06:53:28;18.60;99.90
12276;DHT22;6200;48.144;11.424;2023-09-19T06:55:57;18.90;99.90
12276;DHT22;6200;48.144;11.424;2023-09-19T06:58:22;19.00;99.90
12276;DHT22;6200;48.144;11.424;2023-09-19T07:00:48;19.00;99.90
12276;DHT22;6200;48.144;11.424;2023-09-19T07:03:15;19.00;99.90
12276;DHT22;6200;48.144;11.424;2023-09-19T07:05:44;18.90;99.90
12276;DHT22;6200;48.144;11.424;2023-09-19T07:08:10;18.80;99.90
12276;DHT22;6200;48.144;11.424;2023-09-19T07:10:38;18.80;99.90
12276;DHT22;6200;48.144;11.424;2023-09-19T07:13:07;18.70;99.90
12276;DHT22;6200;48.144;11.424;2023-09-19T07:15:36;18.80;99.90
12276;DHT22;6200;48.144;11.424;2023-09-19T07:18:05;18.80;99.90
12276;DHT22;6200;48.144;11.424;2023-09-19T07:20:32;18.80;99.90
12276;DHT22;6200;48.144;11.424;2023-09-19T07:22:59;18.90;99.90
12276;DHT22;6200;48.144;11.424;2023-09-19T07:25:28;19.00;99.90
12276;DHT22;6200;48.144;11.424;2023-09-19T07:27:55;19.10;99.90
12276;DHT22;6200;48.144;11.424;2023-09-19T07:30:21;19.40;99.90
12276;DHT22;6200;48.144;11.424;2023-09-19T07:32:48;19.60;99.90
12276;DHT22;6200;48.144;11.424;2023-09-19T07:35:13;19.70;99.90
12276;DHT22;6200;48.144;11.424;2023-09-19T07:37:40;19.70;99.90
12276;DHT22;6200;48.144;11.424;2023-09-19T07:40:06;19.90;99.90
12276;DHT22;6200;48.144;11.424;2023-09-19T07:42:36;20.00;99.90
12276;DHT22;6200;48.144;11.424;2023-09-19T07:45:05;20.50;99.90
12276;DHT22;6200;48.144;11.424;2023-09-19T07:47:30;21.20;99.90
12276;DHT22;6200;48.144;11.424;2023-09-19T07:49:58;21.80;99.90
12276;DHT22;6200;48.144;11.424;2023-09-19T07:52:25;22.00;99.90
12276;DHT22;6200;48.144;11.424;2023-09-19T07:54:50;22.30;99.90
12276;DHT22;6200;48.144;11.424;2023-09-19T07:57:16;22.80;99.90
12276;DHT22;6200;48.144;11.424;2023-09-19T07:59:42;22.60;99.90
12276;DHT22;6200;48.144;11.424;2023-09-19T08:02:08;22.90;99.90
12276;DHT22;6200;48.144;11.424;2023-09-19T08:04:44;22.60;99.90
12276;DHT22;6200;48.144;11.424;2023-09-19T08:07:12;23.30;99.90
12276;DHT22;6200;48.144;11.424;2023-09-19T08:09:38;21.80;99.90
12276;DHT22;6200;48.144;11.424;2023-09-19T08:12:05;21.80;99.90
12276;DHT22;6200;48.144;11.424;2023-09-19T08:14:33;21.30;99.90
12276;DHT22;6200;48.144;11.424;2023-09-19T08:16:59;21.80;99.90
12276;DHT22;6200;48.144;11.424;2023-09-19T08:19:26;21.80;99.90
12276;DHT22;6200;48.144;11.424;2023-09-19T08:21:58;22.20;99.90
12276;DHT22;6200;48.144;11.424;2023-09-19T08:24:28;23.60;99.90
12276;DHT22;6200;48.144;11.424;2023-09-19T08:26:57;24.80;99.90
12276;DHT22;6200;48.144;11.424;2023-09-19T08:29:24;26.10;99.50
12276;DHT22;6200;48.144;11.424;2023-09-19T08:31:54;28.70;97.30
12276;DHT22;6200;48.144;11.424;2023-09-19T08:34:19;27.80;94.80
12276;DHT22;6200;48.144;11.424;2023-09-19T08:36:46;28.40;93.10
12276;DHT22;6200;48.144;11.424;2023-09-19T08:39:13;28.20;91.90
12276;DHT22;6200;48.144;11.424;2023-09-19T08:41:39;27.80;91.60
12276;DHT22;6200;48.144;11.424;2023-09-19T08:44:05;27.80;91.50
12276;DHT22;6200;48.144;11.424;2023-09-19T08:46:31;28.00;91.30
12276;DHT22;6200;48.144;11.424;2023-09-19T08:49:04;28.90;91.30
12276;DHT22;6200;48.144;11.424;2023-09-19T08:51:42;28.60;88.10
12276;DHT22;6200;48.144;11.424;2023-09-19T08:54:34;27.30;89.90
12276;DHT22;6200;48.144;11.424;2023-09-19T08:57:06;25.80;91.10
12276;DHT22;6200;48.144;11.424;2023-09-19T08:59:38;26.60;92.50
12276;DHT22;6200;48.144;11.424;2023-09-19T09:02:10;24.20;93.90
12276;DHT22;6200;48.144;11.424;2023-09-19T09:04:40;25.30;95.10
12276;DHT22;6200;48.144;11.424;2023-09-19T09:07:12;24.10;94.10
12276;DHT22;6200;48.144;11.424;2023-09-19T09:09:39;23.70;94.40
12276;DHT22;6200;48.144;11.424;2023-09-19T09:12:12;23.40;95.30
12276;DHT22;6200;48.144;11.424;2023-09-19T09:14:39;23.00;95.20
12276;DHT22;6200;48.144;11.424;2023-09-19T09:17:05;24.20;95.40
12276;DHT22;6200;48.144;11.424;2023-09-19T09:19:31;21.80;93.60
12276;DHT22;6200;48.144;11.424;2023-09-19T09:22:17;25.30;94.20
12276;DHT22;6200;48.144;11.424;2023-09-19T09:24:57;25.20;92.40
12276;DHT22;6200;48.144;11.424;2023-09-19T09:27:30;25.30;92.00
12276;DHT22;6200;48.144;11.424;2023-09-19T09:29:57;25.40;91.50
12276;DHT22;6200;48.144;11.424;2023-09-19T09:34:54;29.00;87.90
12276;DHT22;6200;48.144;11.424;2023-09-19T09:37:21;30.90;83.30
12276;DHT22;6200;48.144;11.424;2023-09-19T09:39:55;32.70;77.50
12276;DHT22;6200;48.144;11.424;2023-09-19T09:45:21;34.50;64.50
12276;DHT22;6200;48.144;11.424;2023-09-19T09:47:59;33.40;64.80
12276;DHT22;6200;48.144;11.424;2023-09-19T09:50:33;32.80;63.60
12276;DHT22;6200;48.144;11.424;2023-09-19T09:55:58;28.90;73.90
12276;DHT22;6200;48.144;11.424;2023-09-19T09:58:27;27.70;74.00
12276;DHT22;6200;48.144;11.424;2023-09-19T10:00:58;27.80;79.10
12276;DHT22;6200;48.144;11.424;2023-09-19T10:03:38;27.10;78.40
12276;DHT22;6200;48.144;11.424;2023-09-19T10:06:15;28.80;76.90
12276;DHT22;6200;48.144;11.424;2023-09-19T10:09:07;29.30;73.90
12276;DHT22;6200;48.144;11.424;2023-09-19T10:11:44;29.40;74.00
12276;DHT22;6200;48.144;11.424;2023-09-19T10:14:12;31.30;72.50
12276;DHT22;6200;48.144;11.424;2023-09-19T10:16:46;32.80;67.40
12276;DHT22;6200;48.144;11.424;2023-09-19T10:19:21;32.00;65.80
12276;DHT22;6200;48.144;11.424;2023-09-19T10:21:50;30.10;69.70
12276;DHT22;6200;48.144;11.424;2023-09-19T10:24:19;30.50;71.50
12276;DHT22;6200;48.144;11.424;2023-09-19T10:26:45;30.30;70.70
12276;DHT22;6200;48.144;11.424;2023-09-19T10:29:13;28.90;70.30
12276;DHT22;6200;48.144;11.424;2023-09-19T10:31:42;27.40;75.00
12276;DHT22;6200;48.144;11.424;2023-09-19T10:34:15;26.60;75.90
12276;DHT22;6200;48.144;11.424;2023-09-19T10:36:45;25.90;78.80
12276;DHT22;6200;48.144;11.424;2023-09-19T10:39:15;28.20;75.60
12276;DHT22;6200;48.144;11.424;2023-09-19T10:41:51;28.30;74.90
12276;DHT22;6200;48.144;11.424;2023-09-19T10:44:24;27.90;76.80
12276;DHT22;6200;48.144;11.424;2023-09-19T10:46:51;27.30;76.20
12276;DHT22;6200;48.144;11.424;2023-09-19T10:49:18;28.20;77.30
12276;DHT22;6200;48.144;11.424;2023-09-19T10:51:44;29.60;72.00
12276;DHT22;6200;48.144;11.424;2023-09-19T10:54:13;30.40;69.20
12276;DHT22;6200;48.144;11.424;2023-09-19T10:56:50;31.90;66.30
12276;DHT22;6200;48.144;11.424;2023-09-19T10:59:21;33.00;64.60
12276;DHT22;6200;48.144;11.424;2023-09-19T11:01:53;34.20;62.10
12276;DHT22;6200;48.144;11.424;2023-09-19T11:04:32;35.40;61.10
12276;DHT22;6200;48.144;11.424;2023-09-19T11:07:05;36.40;56.70
12276;DHT22;6200;48.144;11.424;2023-09-19T11:09:55;36.50;54.00
12276;DHT22;6200;48.144;11.424;2023-09-19T11:15:07;37.00;52.50
12276;DHT22;6200;48.144;11.424;2023-09-19T11:17:34;35.40;53.70
12276;DHT22;6200;48.144;11.424;2023-09-19T11:30:31;34.10;55.70
12276;DHT22;6200;48.144;11.424;2023-09-19T11:33:32;32.90;55.50
12276;DHT22;6200;48.144;11.424;2023-09-19T11:36:07;32.20;56.50
12276;DHT22;6200;48.144;11.424;2023-09-19T11:46:20;29.00;64.00
12276;DHT22;6200;48.144;11.424;2023-09-19T11:48:49;31.50;60.90
12276;DHT22;6200;48.144;11.424;2023-09-19T11:51:19;33.40;56.20
12276;DHT22;6200;48.144;11.424;2023-09-19T11:53:49;34.90;54.50
12276;DHT22;6200;48.144;11.424;2023-09-19T11:56:16;36.20;52.00
12276;DHT22;6200;48.144;11.424;2023-09-19T11:58:44;36.50;51.40
12276;DHT22;6200;48.144;11.424;2023-09-19T12:01:13;37.10;51.60
12276;DHT22;6200;48.144;11.424;2023-09-19T12:03:46;37.10;51.70
12276;DHT22;6200;48.144;11.424;2023-09-19T12:06:15;36.40;51.50
12276;DHT22;6200;48.144;11.424;2023-09-19T12:08:42;35.90;51.40
12276;DHT22;6200;48.144;11.424;2023-09-19T12:11:12;35.40;51.20
12276;DHT22;6200;48.144;11.424;2023-09-19T12:13:45;34.60;52.60
12276;DHT22;6200;48.144;11.424;2023-09-19T12:16:16;32.30;56.40
12276;DHT22;6200;48.144;11.424;2023-09-19T12:18:45;31.50;57.90
12276;DHT22;6200;48.144;11.424;2023-09-19T12:21:28;31.90;57.20
12276;DHT22;6200;48.144;11.424;2023-09-19T12:26:39;32.40;55.80
12276;DHT22;6200;48.144;11.424;2023-09-19T12:29:13;31.50;55.80
12276;DHT22;6200;48.144;11.424;2023-09-19T12:31:56;30.90;58.00
12276;DHT22;6200;48.144;11.424;2023-09-19T12:34:30;30.50;59.70
12276;DHT22;6200;48.144;11.424;2023-09-19T12:39:45;29.90;60.30
12276;DHT22;6200;48.144;11.424;2023-09-19T12:42:26;30.20;62.40
12276;DHT22;6200;48.144;11.424;2023-09-19T12:44:55;30.30;59.40
12276;DHT22;6200;48.144;11.424;2023-09-19T12:47:23;30.10;60.80
12276;DHT22;6200;48.144;11.424;2023-09-19T12:50:15;30.10;61.30
12276;DHT22;6200;48.144;11.424;2023-09-19T12:52:52;30.10;60.20
12276;DHT22;6200;48.144;11.424;2023-09-19T12:55:27;30.00;60.40
12276;DHT22;6200;48.144;11.424;2023-09-19T13:00:37;29.70;63.50
12276;DHT22;6200;48.144;11.424;2023-09-19T13:08:22;29.50;65.90
12276;DHT22;6200;48.144;11.424;2023-09-19T13:11:12;29.30;65.20
12276;DHT22;6200;48.144;11.424;2023-09-19T13:17:04;28.50;69.40
12276;DHT22;6200;48.144;11.424;2023-09-19T13:19:50;28.30;68.80
12276;DHT22;6200;48.144;11.424;2023-09-19T13:22:45;28.10;70.90
12276;DHT22;6200;48.144;11.424;2023-09-19T13:25:23;27.60;71.70
12276;DHT22;6200;48.144;11.424;2023-09-19T13:27:50;27.60;71.60
12276;DHT22;6200;48.144;11.424;2023-09-19T13:30:18;27.60;71.80
12276;DHT22;6200;48.144;11.424;2023-09-19T13:32:46;25.90;68.80
12276;DHT22;6200;48.144;11.424;2023-09-19T13:35:15;27.70;69.60
12276;DHT22;6200;48.144;11.424;2023-09-19T13:37:42;27.90;68.70
12276;DHT22;6200;48.144;11.424;2023-09-19T13:40:12;26.00;64.10
12276;DHT22;6200;48.144;11.424;2023-09-19T13:42:41;28.20;65.30
12276;DHT22;6200;48.144;11.424;2023-09-19T13:45:08;28.10;65.10
12276;DHT22;6200;48.144;11.424;2023-09-19T13:47:38;29.90;69.90
12276;DHT22;6200;48.144;11.424;2023-09-19T13:50:05;28.00;65.00
12276;DHT22;6200;48.144;11.424;2023-09-19T13:52:33;26.50;64.90
12276;DHT22;6200;48.144;11.424;2023-09-19T13:55:04;27.50;67.80
12276;DHT22;6200;48.144;11.424;2023-09-19T13:57:32;27.30;65.50
12276;DHT22;6200;48.144;11.424;2023-09-19T13:59:58;27.30;67.40
12276;DHT22;6200;48.144;11.424;2023-09-19T14:02:26;27.10;68.30
12276;DHT22;6200;48.144;11.424;2023-09-19T14:04:52;26.90;68.00
12276;DHT22;6200;48.144;11.424;2023-09-19T14:07:18;26.70;69.90
12276;DHT22;6200;48.144;11.424;2023-09-19T14:09:47;26.40;68.70
12276;DHT22;6200;48.144;11.424;2023-09-19T14:12:13;26.60;71.10
12276;DHT22;6200;48.144;11.424;2023-09-19T14:14:41;26.50;73.30
12276;DHT22;6200;48.144;11.424;2023-09-19T14:17:07;26.50;71.70
12276;DHT22;6200;48.144;11.424;2023-09-19T14:19:34;26.30;74.30
12276;DHT22;6200;48.144;11.424;2023-09-19T14:22:02;26.20;71.80
12276;DHT22;6200;48.144;11.424;2023-09-19T14:24:33;26.20;71.70
12276;DHT22;6200;48.144;11.424;2023-09-19T14:26:58;25.60;71.40
12276;DHT22;6200;48.144;11.424;2023-09-19T14:29:25;26.20;72.30
12276;DHT22;6200;48.144;11.424;2023-09-19T14:31:50;26.00;72.60
12276;DHT22;6200;48.144;11.424;2023-09-19T14:34:17;25.80;73.80
12276;DHT22;6200;48.144;11.424;2023-09-19T14:36:43;25.60;72.30
12276;DHT22;6200;48.144;11.424;2023-09-19T14:39:08;25.30;73.50
12276;DHT22;6200;48.144;11.424;2023-09-19T14:41:34;25.50;74.20
12276;DHT22;6200;48.144;11.424;2023-09-19T14:44:01;25.30;74.40
12276;DHT22;6200;48.144;11.424;2023-09-19T14:46:30;25.30;73.30
12276;DHT22;6200;48.144;11.424;2023-09-19T14:48:56;26.20;74.30
12276;DHT22;6200;48.144;11.424;2023-09-19T14:51:25;23.90;75.60
12276;DHT22;6200;48.144;11.424;2023-09-19T14:53:51;25.10;75.20
12276;DHT22;6200;48.144;11.424;2023-09-19T14:56:17;25.10;77.10
12276;DHT22;6200;48.144;11.424;2023-09-19T14:58:45;24.80;76.70
12276;DHT22;6200;48.144;11.424;2023-09-19T15:01:13;22.10;75.20
12276;DHT22;6200;48.144;11.424;2023-09-19T15:03:40;24.70;77.70
12276;DHT22;6200;48.144;11.424;2023-09-19T15:06:10;26.60;75.50
12276;DHT22;6200;48.144;11.424;2023-09-19T15:08:44;24.50;75.30
12276;DHT22;6200;48.144;11.424;2023-09-19T15:11:13;24.50;76.30
12276;DHT22;6200;48.144;11.424;2023-09-19T15:13:41;24.50;77.00
12276;DHT22;6200;48.144;11.424;2023-09-19T15:16:08;24.40;77.80
12276;DHT22;6200;48.144;11.424;2023-09-19T15:18:41;24.20;75.80
12276;DHT22;6200;48.144;11.424;2023-09-19T15:21:11;24.20;75.60
12276;DHT22;6200;48.144;11.424;2023-09-19T15:23:38;24.10;76.40
12276;DHT22;6200;48.144;11.424;2023-09-19T15:26:05;24.10;77.60
12276;DHT22;6200;48.144;11.424;2023-09-19T15:28:31;24.00;76.40
12276;DHT22;6200;48.144;11.424;2023-09-19T15:31:09;24.10;76.40
12276;DHT22;6200;48.144;11.424;2023-09-19T15:33:39;24.40;76.20
12276;DHT22;6200;48.144;11.424;2023-09-19T15:38:31;23.90;75.20
12276;DHT22;6200;48.144;11.424;2023-09-19T15:40:58;23.80;76.30
12276;DHT22;6200;48.144;11.424;2023-09-19T15:43:24;23.60;76.20
12276;DHT22;6200;48.144;11.424;2023-09-19T15:45:50;23.50;76.50
12276;DHT22;6200;48.144;11.424;2023-09-19T15:48:16;23.40;78.10
12276;DHT22;6200;48.144;11.424;2023-09-19T15:50:42;23.40;77.40
12276;DHT22;6200;48.144;11.424;2023-09-19T15:53:09;23.30;79.60
12276;DHT22;6200;48.144;11.424;2023-09-19T15:55:40;23.20;77.90
12276;DHT22;6200;48.144;11.424;2023-09-19T15:58:06;23.10;77.60
12276;DHT22;6200;48.144;11.424;2023-09-19T16:00:32;23.00;78.10
12276;DHT22;6200;48.144;11.424;2023-09-19T16:03:00;23.00;79.50
12276;DHT22;6200;48.144;11.424;2023-09-19T16:05:26;22.80;80.00
12276;DHT22;6200;48.144;11.424;2023-09-19T16:07:52;22.70;80.50
12276;DHT22;6200;48.144;11.424;2023-09-19T16:10:18;22.70;81.10
12276;DHT22;6200;48.144;11.424;2023-09-19T16:12:43;22.60;80.90
12276;DHT22;6200;48.144;11.424;2023-09-19T16:15:09;22.50;81.30
12276;DHT22;6200;48.144;11.424;2023-09-19T16:17:37;22.50;80.40
12276;DHT22;6200;48.144;11.424;2023-09-19T16:20:03;22.40;82.00
12276;DHT22;6200;48.144;11.424;2023-09-19T16:22:28;22.30;81.40
12276;DHT22;6200;48.144;11.424;2023-09-19T16:24:54;22.20;81.30
12276;DHT22;6200;48.144;11.424;2023-09-19T16:27:19;22.20;82.10
12276;DHT22;6200;48.144;11.424;2023-09-19T16:29:47;22.20;82.00
12276;DHT22;6200;48.144;11.424;2023-09-19T16:32:14;22.00;81.90
12276;DHT22;6200;48.144;11.424;2023-09-19T16:34:40;22.00;82.80
12276;DHT22;6200;48.144;11.424;2023-09-19T16:37:06;21.90;82.80
12276;DHT22;6200;48.144;11.424;2023-09-19T16:39:32;21.70;84.00
12276;DHT22;6200;48.144;11.424;2023-09-19T16:41:59;21.70;84.60
12276;DHT22;6200;48.144;11.424;2023-09-19T16:44:25;21.60;84.70
12276;DHT22;6200;48.144;11.424;2023-09-19T16:46:50;21.50;85.00